sensor_id;sensor_type;location;lat;lon;timestamp;pressure;altitude;pressure_sealevel;temperature;humidity
40946;BME280;55635;50.264;11.918;2023-05-25T00:00:43;96253.56;;;8.76;66.58
40946;BME280;55635;50.264;11.918;2023-05-25T00:03:23;96251.53;;;8.70;66.87
40946;BME280;55635;50.264;11.918;2023-05-25T00:06:07;96252.84;;;8.66;67.80
40946;BME280;55635;50.264;11.918;2023-05-25T00:08:49;96266.44;;;8.71;68.81
40946;BME280;55635;50.264;11.918;2023-05-25T00:11:34;96259.38;;;8.54;70.16
40946;BME280;55635;50.264;11.918;2023-05-25T00:14:15;96265.66;;;8.53;68.05
40946;BME280;55635;50.264;11.918;2023-05-25T00:16:56;96259.03;;;8.49;68.36
40946;BME280;55635;50.264;11.918;2023-05-25T00:19:38;96244.16;;;8.48;67.85
40946;BME280;55635;50.264;11.918;2023-05-25T00:22:22;96249.75;;;8.45;69.94
40946;BME280;55635;50.264;11.918;2023-05-25T00:25:04;96249.75;;;8.45;69.05
40946;BME280;55635;50.264;11.918;2023-05-25T00:27:45;96254.38;;;8.43;68.27
40946;BME280;55635;50.264;11.918;2023-05-25T00:30:27;96265.47;;;8.46;68.18
40946;BME280;55635;50.264;11.918;2023-05-25T00:33:08;96255.66;;;8.39;68.52
40946;BME280;55635;50.264;11.918;2023-05-25T00:35:51;96269.25;;;8.44;68.65
40946;BME280;55635;50.264;11.918;2023-05-25T00:38:33;96256.34;;;8.41;70.40
40946;BME280;55635;50.264;11.918;2023-05-25T00:41:16;96252.41;;;8.27;70.99
40946;BME280;55635;50.264;11.918;2023-05-25T00:43:58;96239.66;;;8.22;69.08
40946;BME280;55635;50.264;11.918;2023-05-25T00:46:44;96244.94;;;8.22;69.19
40946;BME280;55635;50.264;11.918;2023-05-25T00:49:27;96241.91;;;8.09;70.58
40946;BME280;55635;50.264;11.918;2023-05-25T00:52:12;96238.78;;;8.14;71.27
40946;BME280;55635;50.264;11.918;2023-05-25T00:54:55;96243.97;;;7.98;70.47
40946;BME280;55635;50.264;11.918;2023-05-25T00:57:40;96247.06;;;7.93;70.57
40946;BME280;55635;50.264;11.918;2023-05-25T01:00:27;96254.22;;;7.83;70.67
40946;BME280;55635;50.264;11.918;2023-05-25T01:03:14;96258.19;;;7.79;70.30
40946;BME280;55635;50.264;11.918;2023-05-25T01:06:08;96247.31;;;7.82;69.64
40946;BME280;55635;50.264;11.918;2023-05-25T01:08:55;96248.53;;;7.70;69.99
40946;BME280;55635;50.264;11.918;2023-05-25T01:11:43;96255.09;;;7.66;70.49
40946;BME280;55635;50.264;11.918;2023-05-25T01:14:24;96255.75;;;7.68;70.24
40946;BME280;55635;50.264;11.918;2023-05-25T01:17:07;96239.91;;;7.68;70.56
40946;BME280;55635;50.264;11.918;2023-05-25T01:19:49;96235.69;;;7.75;70.08
40946;BME280;55635;50.264;11.918;2023-05-25T01:22:52;96237.06;;;7.79;71.17
40946;BME280;55635;50.264;11.918;2023-05-25T01:25:39;96231.69;;;7.71;69.31
40946;BME280;55635;50.264;11.918;2023-05-25T01:28:27;96232.00;;;7.68;70.86
40946;BME280;55635;50.264;11.918;2023-05-25T01:31:09;96246.50;;;7.64;70.27
40946;BME280;55635;50.264;11.918;2023-05-25T01:33:51;96220.63;;;7.50;69.13
40946;BME280;55635;50.264;11.918;2023-05-25T01:36:33;96239.78;;;7.52;68.68
40946;BME280;55635;50.264;11.918;2023-05-25T01:39:14;96225.47;;;7.37;67.99
40946;BME280;55635;50.264;11.918;2023-05-25T01:41:56;96251.91;;;7.45;69.85
40946;BME280;55635;50.264;11.918;2023-05-25T01:44:38;96247.53;;;7.36;68.91
40946;BME280;55635;50.264;11.918;2023-05-25T01:50:59;96268.94;;;7.33;71.31
40946;BME280;55635;50.264;11.918;2023-05-25T01:53:59;96255.22;;;7.29;70.46
40946;BME280;55635;50.264;11.918;2023-05-25T01:56:41;96258.69;;;7.30;70.75
40946;BME280;55635;50.264;11.918;2023-05-25T01:59:27;96254.50;;;7.09;71.23
40946;BME280;55635;50.264;11.918;2023-05-25T02:02:14;96264.69;;;7.04;71.68
40946;BME280;55635;50.264;11.918;2023-05-25T02:04:57;96255.25;;;7.02;72.21
40946;BME280;55635;50.264;11.918;2023-05-25T02:07:38;96241.53;;;6.98;72.09
40946;BME280;55635;50.264;11.918;2023-05-25T02:10:19;96252.88;;;7.08;72.02
40946;BME280;55635;50.264;11.918;2023-05-25T02:13:03;96255.63;;;7.07;71.53
40946;BME280;55635;50.264;11.918;2023-05-25T02:15:44;96261.44;;;7.10;72.71
40946;BME280;55635;50.264;11.918;2023-05-25T02:18:25;96262.88;;;7.05;72.29
40946;BME280;55635;50.264;11.918;2023-05-25T02:21:08;96255.25;;;7.02;73.04
40946;BME280;55635;50.264;11.918;2023-05-25T02:23:49;96254.13;;;7.04;73.49
40946;BME280;55635;50.264;11.918;2023-05-25T02:26:29;96244.53;;;7.03;71.93
40946;BME280;55635;50.264;11.918;2023-05-25T02:29:12;96255.56;;;6.99;72.97
40946;BME280;55635;50.264;11.918;2023-05-25T02:31:53;96248.50;;;6.72;71.43
40946;BME280;55635;50.264;11.918;2023-05-25T02:34:35;96265.56;;;6.68;71.16
40946;BME280;55635;50.264;11.918;2023-05-25T02:37:16;96264.06;;;6.56;72.48
40946;BME280;55635;50.264;11.918;2023-05-25T02:39:57;96267.00;;;6.53;71.94
40946;BME280;55635;50.264;11.918;2023-05-25T02:42:38;96267.00;;;6.53;71.67
40946;BME280;55635;50.264;11.918;2023-05-25T02:45:19;96255.91;;;6.49;72.16
40946;BME280;55635;50.264;11.918;2023-05-25T02:48:00;96262.56;;;6.53;71.82
40946;BME280;55635;50.264;11.918;2023-05-25T02:50:41;96269.06;;;6.59;71.61
40946;BME280;55635;50.264;11.918;2023-05-25T02:53:26;96249.81;;;6.49;71.63
40946;BME280;55635;50.264;11.918;2023-05-25T02:56:07;96245.69;;;6.37;72.82
40946;BME280;55635;50.264;11.918;2023-05-25T02:58:50;96259.97;;;6.44;73.17
40946;BME280;55635;50.264;11.918;2023-05-25T03:01:39;96241.59;;;6.25;74.37
40946;BME280;55635;50.264;11.918;2023-05-25T03:04:20;96273.69;;;6.47;73.32
40946;BME280;55635;50.264;11.918;2023-05-25T03:07:02;96271.34;;;6.44;73.39
40946;BME280;55635;50.264;11.918;2023-05-25T03:09:43;96279.91;;;6.46;73.96
40946;BME280;55635;50.264;11.918;2023-05-25T03:12:25;96280.34;;;6.42;73.99
40946;BME280;55635;50.264;11.918;2023-05-25T03:15:07;96256.53;;;6.34;74.32
40946;BME280;55635;50.264;11.918;2023-05-25T03:17:49;96254.19;;;6.31;74.18
40946;BME280;55635;50.264;11.918;2023-05-25T03:20:30;96292.22;;;6.55;72.81
40946;BME280;55635;50.264;11.918;2023-05-25T03:23:12;96297.50;;;6.55;72.43
40946;BME280;55635;50.264;11.918;2023-05-25T03:25:53;96283.09;;;6.50;72.30
40946;BME280;55635;50.264;11.918;2023-05-25T03:28:35;96291.94;;;6.58;72.51
40946;BME280;55635;50.264;11.918;2023-05-25T03:31:17;96291.53;;;6.53;73.51
40946;BME280;55635;50.264;11.918;2023-05-25T03:33:59;96289.97;;;6.61;72.26
40946;BME280;55635;50.264;11.918;2023-05-25T03:36:40;96289.47;;;6.57;73.10
40946;BME280;55635;50.264;11.918;2023-05-25T03:39:25;96291.50;;;6.63;72.89
40946;BME280;55635;50.264;11.918;2023-05-25T03:42:08;96291.66;;;6.52;72.64
40946;BME280;55635;50.264;11.918;2023-05-25T03:44:50;96309.44;;;6.50;72.42
40946;BME280;55635;50.264;11.918;2023-05-25T03:47:32;96303.63;;;6.46;73.12
40946;BME280;55635;50.264;11.918;2023-05-25T03:50:13;96313.16;;;6.57;72.30
40946;BME280;55635;50.264;11.918;2023-05-25T03:52:54;96309.56;;;6.48;73.38
40946;BME280;55635;50.264;11.918;2023-05-25T03:55:35;96306.81;;;6.40;73.49
40946;BME280;55635;50.264;11.918;2023-05-25T03:58:17;96321.09;;;6.47;73.14
40946;BME280;55635;50.264;11.918;2023-05-25T04:00:58;96297.97;;;6.41;72.69
40946;BME280;55635;50.264;11.918;2023-05-25T04:03:39;96307.75;;;6.49;73.79
40946;BME280;55635;50.264;11.918;2023-05-25T04:06:21;96324.94;;;6.53;75.34
40946;BME280;55635;50.264;11.918;2023-05-25T04:09:04;96319.22;;;6.67;75.19
40946;BME280;55635;50.264;11.918;2023-05-25T04:11:47;96320.72;;;6.70;75.91
40946;BME280;55635;50.264;11.918;2023-05-25T04:14:29;96297.16;;;6.68;75.16
40946;BME280;55635;50.264;11.918;2023-05-25T04:17:10;96323.41;;;6.97;75.12
40946;BME280;55635;50.264;11.918;2023-05-25T04:19:51;96335.34;;;7.19;74.42
40946;BME280;55635;50.264;11.918;2023-05-25T04:22:33;96338.25;;;7.25;75.39
40946;BME280;55635;50.264;11.918;2023-05-25T04:25:14;96327.94;;;7.32;75.27
40946;BME280;55635;50.264;11.918;2023-05-25T04:27:57;96331.56;;;7.31;75.25
40946;BME280;55635;50.264;11.918;2023-05-25T04:30:57;96340.47;;;7.47;74.23
40946;BME280;55635;50.264;11.918;2023-05-25T04:34:04;96343.66;;;7.51;74.62
40946;BME280;55635;50.264;11.918;2023-05-25T04:36:52;96356.34;;;7.65;75.10
40946;BME280;55635;50.264;11.918;2023-05-25T04:39:35;96358.78;;;7.76;74.49
40946;BME280;55635;50.264;11.918;2023-05-25T04:42:18;96348.88;;;7.78;73.96
40946;BME280;55635;50.264;11.918;2023-05-25T04:44:59;96354.94;;;7.88;75.00
40946;BME280;55635;50.264;11.918;2023-05-25T04:47:40;96350.03;;;7.93;75.42
40946;BME280;55635;50.264;11.918;2023-05-25T04:50:23;96353.97;;;8.07;75.78
40946;BME280;55635;50.264;11.918;2023-05-25T04:53:05;96341.25;;;8.10;75.65
40946;BME280;55635;50.264;11.918;2023-05-25T04:55:46;96341.78;;;8.14;76.49
40946;BME280;55635;50.264;11.918;2023-05-25T04:58:27;96341.72;;;8.23;75.69
40946;BME280;55635;50.264;11.918;2023-05-25T05:01:09;96345.44;;;8.31;75.79
40946;BME280;55635;50.264;11.918;2023-05-25T05:03:50;96355.44;;;8.45;75.14
40946;BME280;55635;50.264;11.918;2023-05-25T05:06:31;96330.22;;;8.50;75.11
40946;BME280;55635;50.264;11.918;2023-05-25T05:09:12;96342.69;;;8.84;74.51
40946;BME280;55635;50.264;11.918;2023-05-25T05:11:53;96345.69;;;8.97;75.06
40946;BME280;55635;50.264;11.918;2023-05-25T05:14:34;96317.88;;;8.85;76.65
40946;BME280;55635;50.264;11.918;2023-05-25T05:17:16;96358.22;;;9.20;77.81
40946;BME280;55635;50.264;11.918;2023-05-25T05:19:58;96343.81;;;9.15;78.40
40946;BME280;55635;50.264;11.918;2023-05-25T05:22:39;96332.84;;;9.36;77.92
40946;BME280;55635;50.264;11.918;2023-05-25T05:25:20;96345.63;;;9.56;78.42
40946;BME280;55635;50.264;11.918;2023-05-25T05:28:01;96350.34;;;9.87;77.13
40946;BME280;55635;50.264;11.918;2023-05-25T05:30:49;96349.69;;;9.93;76.44
40946;BME280;55635;50.264;11.918;2023-05-25T05:33:30;96341.09;;;10.07;76.23
40946;BME280;55635;50.264;11.918;2023-05-25T05:36:12;96357.88;;;10.23;74.90
40946;BME280;55635;50.264;11.918;2023-05-25T05:38:54;96349.94;;;10.40;74.88
40946;BME280;55635;50.264;11.918;2023-05-25T05:41:35;96355.22;;;10.56;74.53
40946;BME280;55635;50.264;11.918;2023-05-25T05:44:16;96343.94;;;10.70;73.86
40946;BME280;55635;50.264;11.918;2023-05-25T05:46:57;96353.72;;;10.85;74.01
40946;BME280;55635;50.264;11.918;2023-05-25T05:49:42;96347.91;;;10.82;74.43
40946;BME280;55635;50.264;11.918;2023-05-25T05:52:22;96350.81;;;11.11;73.35
40946;BME280;55635;50.264;11.918;2023-05-25T05:55:04;96342.16;;;11.17;73.14
40946;BME280;55635;50.264;11.918;2023-05-25T05:57:47;96348.25;;;11.34;73.19
40946;BME280;55635;50.264;11.918;2023-05-25T06:00:27;96351.47;;;11.60;71.79
40946;BME280;55635;50.264;11.918;2023-05-25T06:03:08;96337.00;;;11.63;71.85
40946;BME280;55635;50.264;11.918;2023-05-25T06:05:50;96342.88;;;11.89;71.50
40946;BME280;55635;50.264;11.918;2023-05-25T06:08:32;96331.91;;;11.92;70.70
40946;BME280;55635;50.264;11.918;2023-05-25T06:11:13;96341.03;;;12.57;70.75
40946;BME280;55635;50.264;11.918;2023-05-25T06:13:54;96329.19;;;13.56;70.16
40946;BME280;55635;50.264;11.918;2023-05-25T06:16:35;96328.25;;;14.56;67.99
40946;BME280;55635;50.264;11.918;2023-05-25T06:19:17;96332.84;;;15.52;62.00
40946;BME280;55635;50.264;11.918;2023-05-25T06:22:04;96317.88;;;16.25;59.62
40946;BME280;55635;50.264;11.918;2023-05-25T06:24:45;96325.13;;;17.10;58.35
40946;BME280;55635;50.264;11.918;2023-05-25T06:27:27;96324.00;;;17.70;55.69
40946;BME280;55635;50.264;11.918;2023-05-25T06:30:09;96316.91;;;18.64;52.63
40946;BME280;55635;50.264;11.918;2023-05-25T06:32:51;96312.19;;;18.84;50.71
40946;BME280;55635;50.264;11.918;2023-05-25T06:35:32;96319.81;;;19.73;50.62
40946;BME280;55635;50.264;11.918;2023-05-25T06:38:13;96324.00;;;20.05;47.88
40946;BME280;55635;50.264;11.918;2023-05-25T06:40:54;96331.00;;;20.06;46.21
40946;BME280;55635;50.264;11.918;2023-05-25T06:43:35;96315.72;;;20.90;46.52
40946;BME280;55635;50.264;11.918;2023-05-25T06:46:36;96318.34;;;21.20;44.67
40946;BME280;55635;50.264;11.918;2023-05-25T06:49:18;96317.91;;;21.46;43.61
40946;BME280;55635;50.264;11.918;2023-05-25T06:51:59;96312.22;;;21.94;42.72
40946;BME280;55635;50.264;11.918;2023-05-25T06:54:40;96310.38;;;21.48;41.86
40946;BME280;55635;50.264;11.918;2023-05-25T06:57:22;96307.66;;;22.22;42.50
40946;BME280;55635;50.264;11.918;2023-05-25T07:00:04;96309.31;;;22.12;42.27
40946;BME280;55635;50.264;11.918;2023-05-25T07:02:47;96292.91;;;22.87;40.84
40946;BME280;55635;50.264;11.918;2023-05-25T07:05:28;96296.72;;;23.24;39.49
40946;BME280;55635;50.264;11.918;2023-05-25T07:08:09;96299.88;;;22.99;40.09
40946;BME280;55635;50.264;11.918;2023-05-25T07:10:50;96276.56;;;22.98;39.73
40946;BME280;55635;50.264;11.918;2023-05-25T07:13:31;96293.19;;;23.40;37.81
40946;BME280;55635;50.264;11.918;2023-05-25T07:16:12;96296.41;;;23.20;37.66
40946;BME280;55635;50.264;11.918;2023-05-25T07:18:53;96299.34;;;23.36;37.83
40946;BME280;55635;50.264;11.918;2023-05-25T07:21:34;96296.53;;;23.30;38.42
40946;BME280;55635;50.264;11.918;2023-05-25T07:24:16;96289.97;;;23.60;36.68
40946;BME280;55635;50.264;11.918;2023-05-25T07:26:57;96293.94;;;23.36;37.32
40946;BME280;55635;50.264;11.918;2023-05-25T07:29:39;96288.03;;;23.39;37.25
40946;BME280;55635;50.264;11.918;2023-05-25T07:32:20;96295.16;;;23.83;37.01
40946;BME280;55635;50.264;11.918;2023-05-25T07:35:01;96297.03;;;24.04;35.76
40946;BME280;55635;50.264;11.918;2023-05-25T07:37:42;96283.25;;;23.84;34.90
40946;BME280;55635;50.264;11.918;2023-05-25T07:40:23;96286.16;;;24.48;34.74
40946;BME280;55635;50.264;11.918;2023-05-25T07:43:04;96275.22;;;24.37;34.74
40946;BME280;55635;50.264;11.918;2023-05-25T07:45:45;96288.41;;;24.29;34.92
40946;BME280;55635;50.264;11.918;2023-05-25T07:48:26;96291.00;;;24.19;35.40
40946;BME280;55635;50.264;11.918;2023-05-25T07:51:07;96291.00;;;23.97;34.61
40946;BME280;55635;50.264;11.918;2023-05-25T07:53:48;96287.69;;;24.12;35.09
40946;BME280;55635;50.264;11.918;2023-05-25T07:56:29;96294.31;;;24.04;34.56
40946;BME280;55635;50.264;11.918;2023-05-25T07:59:10;96291.53;;;24.69;34.59
40946;BME280;55635;50.264;11.918;2023-05-25T08:01:51;96295.66;;;25.04;34.86
40946;BME280;55635;50.264;11.918;2023-05-25T08:04:32;96306.97;;;24.15;35.18
40946;BME280;55635;50.264;11.918;2023-05-25T08:07:13;96301.97;;;24.56;35.45
40946;BME280;55635;50.264;11.918;2023-05-25T08:09:54;96309.28;;;24.28;33.93
40946;BME280;55635;50.264;11.918;2023-05-25T08:12:35;96307.03;;;24.74;33.73
40946;BME280;55635;50.264;11.918;2023-05-25T08:15:16;96311.13;;;24.50;35.01
40946;BME280;55635;50.264;11.918;2023-05-25T08:17:57;96306.50;;;24.23;34.50
40946;BME280;55635;50.264;11.918;2023-05-25T08:20:38;96304.66;;;23.85;34.67
40946;BME280;55635;50.264;11.918;2023-05-25T08:23:19;96312.66;;;24.41;35.39
40946;BME280;55635;50.264;11.918;2023-05-25T08:26:00;96318.56;;;24.59;35.00
40946;BME280;55635;50.264;11.918;2023-05-25T08:28:41;96306.75;;;24.00;35.52
40946;BME280;55635;50.264;11.918;2023-05-25T08:31:22;96304.47;;;23.92;35.08
40946;BME280;55635;50.264;11.918;2023-05-25T08:34:02;96310.91;;;24.29;35.96
40946;BME280;55635;50.264;11.918;2023-05-25T08:36:43;96300.25;;;24.01;35.17
40946;BME280;55635;50.264;11.918;2023-05-25T08:39:25;96302.06;;;24.12;35.38
40946;BME280;55635;50.264;11.918;2023-05-25T08:42:06;96298.16;;;24.52;36.40
40946;BME280;55635;50.264;11.918;2023-05-25T08:47:42;96305.84;;;24.65;34.50
40946;BME280;55635;50.264;11.918;2023-05-25T08:50:26;96294.44;;;24.63;35.06
40946;BME280;55635;50.264;11.918;2023-05-25T08:53:07;96302.06;;;24.66;34.52
40946;BME280;55635;50.264;11.918;2023-05-25T08:55:53;96306.78;;;25.02;34.61
40946;BME280;55635;50.264;11.918;2023-05-25T08:58:44;96296.13;;;25.27;33.76
40946;BME280;55635;50.264;11.918;2023-05-25T09:01:28;96298.84;;;24.69;32.96
40946;BME280;55635;50.264;11.918;2023-05-25T09:04:12;96303.94;;;24.60;33.80
40946;BME280;55635;50.264;11.918;2023-05-25T09:06:54;96306.00;;;24.53;35.16
40946;BME280;55635;50.264;11.918;2023-05-25T09:09:35;96311.53;;;24.85;34.00
40946;BME280;55635;50.264;11.918;2023-05-25T09:12:18;96311.09;;;24.45;34.28
40946;BME280;55635;50.264;11.918;2023-05-25T09:15:00;96306.75;;;24.97;33.91
40946;BME280;55635;50.264;11.918;2023-05-25T09:17:40;96312.69;;;24.94;34.59
40946;BME280;55635;50.264;11.918;2023-05-25T09:20:23;96305.94;;;25.33;34.07
40946;BME280;55635;50.264;11.918;2023-05-25T09:23:04;96303.13;;;25.18;33.08
40946;BME280;55635;50.264;11.918;2023-05-25T09:25:46;96309.97;;;24.67;33.32
40946;BME280;55635;50.264;11.918;2023-05-25T09:28:27;96312.53;;;24.52;34.24
40946;BME280;55635;50.264;11.918;2023-05-25T09:31:08;96318.66;;;24.43;35.07
40946;BME280;55635;50.264;11.918;2023-05-25T09:33:50;96305.47;;;23.86;35.29
40946;BME280;55635;50.264;11.918;2023-05-25T09:36:35;96313.97;;;24.11;34.73
40946;BME280;55635;50.264;11.918;2023-05-25T09:39:16;96309.34;;;23.90;35.00
40946;BME280;55635;50.264;11.918;2023-05-25T09:42:00;96319.09;;;24.34;34.60
40946;BME280;55635;50.264;11.918;2023-05-25T09:44:42;96315.41;;;24.67;33.59
40946;BME280;55635;50.264;11.918;2023-05-25T09:47:23;96315.06;;;24.85;33.82
40946;BME280;55635;50.264;11.918;2023-05-25T09:50:04;96300.81;;;25.05;34.38
40946;BME280;55635;50.264;11.918;2023-05-25T09:52:46;96300.84;;;25.42;33.69
40946;BME280;55635;50.264;11.918;2023-05-25T09:55:28;96323.06;;;25.02;33.61
40946;BME280;55635;50.264;11.918;2023-05-25T09:58:10;96313.72;;;25.57;33.60
40946;BME280;55635;50.264;11.918;2023-05-25T10:00:53;96310.16;;;25.98;34.03
40946;BME280;55635;50.264;11.918;2023-05-25T10:03:34;96307.88;;;25.80;34.57
40946;BME280;55635;50.264;11.918;2023-05-25T10:06:16;96315.13;;;25.27;34.76
40946;BME280;55635;50.264;11.918;2023-05-25T10:08:57;96304.03;;;25.71;33.29
40946;BME280;55635;50.264;11.918;2023-05-25T10:11:41;96313.16;;;25.18;33.61
40946;BME280;55635;50.264;11.918;2023-05-25T10:14:26;96311.81;;;25.20;33.37
40946;BME280;55635;50.264;11.918;2023-05-25T10:17:10;96316.81;;;25.75;34.18
40946;BME280;55635;50.264;11.918;2023-05-25T10:19:58;96320.81;;;26.10;33.26
40946;BME280;55635;50.264;11.918;2023-05-25T10:23:05;96319.13;;;26.04;33.14
40946;BME280;55635;50.264;11.918;2023-05-25T10:25:54;96322.25;;;26.27;33.10
40946;BME280;55635;50.264;11.918;2023-05-25T10:28:40;96315.56;;;26.60;34.10
40946;BME280;55635;50.264;11.918;2023-05-25T10:31:24;96315.28;;;26.67;32.76
40946;BME280;55635;50.264;11.918;2023-05-25T10:34:07;96313.19;;;27.04;32.98
40946;BME280;55635;50.264;11.918;2023-05-25T10:36:50;96319.19;;;26.96;32.72
40946;BME280;55635;50.264;11.918;2023-05-25T10:39:33;96321.44;;;26.27;32.59
40946;BME280;55635;50.264;11.918;2023-05-25T10:42:17;96308.75;;;26.73;32.05
40946;BME280;55635;50.264;11.918;2023-05-25T10:44:58;96313.47;;;27.18;31.38
40946;BME280;55635;50.264;11.918;2023-05-25T10:47:40;96309.34;;;26.80;31.76
40946;BME280;55635;50.264;11.918;2023-05-25T10:50:24;96316.31;;;26.40;31.72
40946;BME280;55635;50.264;11.918;2023-05-25T10:53:11;96315.09;;;26.88;31.74
40946;BME280;55635;50.264;11.918;2023-05-25T10:58:33;96307.22;;;27.12;30.96
40946;BME280;55635;50.264;11.918;2023-05-25T11:01:14;96315.66;;;27.06;32.37
40946;BME280;55635;50.264;11.918;2023-05-25T11:04:12;96315.84;;;26.69;31.65
40946;BME280;55635;50.264;11.918;2023-05-25T11:07:03;96315.09;;;27.39;31.84
40946;BME280;55635;50.264;11.918;2023-05-25T11:09:56;96312.09;;;26.90;32.66
40946;BME280;55635;50.264;11.918;2023-05-25T11:12:38;96321.09;;;27.21;32.13
40946;BME280;55635;50.264;11.918;2023-05-25T11:15:20;96318.34;;;27.66;31.56
40946;BME280;55635;50.264;11.918;2023-05-25T11:18:01;96307.72;;;27.70;31.60
40946;BME280;55635;50.264;11.918;2023-05-25T11:20:42;96306.88;;;27.79;30.84
40946;BME280;55635;50.264;11.918;2023-05-25T11:23:24;96312.28;;;28.09;29.43
40946;BME280;55635;50.264;11.918;2023-05-25T11:26:04;96309.28;;;28.06;32.09
40946;BME280;55635;50.264;11.918;2023-05-25T11:28:46;96309.53;;;28.04;31.17
40946;BME280;55635;50.264;11.918;2023-05-25T11:31:30;96311.75;;;27.97;30.87
40946;BME280;55635;50.264;11.918;2023-05-25T11:34:12;96307.03;;;28.23;31.40
40946;BME280;55635;50.264;11.918;2023-05-25T11:36:58;96304.56;;;28.27;31.39
40946;BME280;55635;50.264;11.918;2023-05-25T11:39:47;96309.19;;;28.31;31.26
40946;BME280;55635;50.264;11.918;2023-05-25T11:42:28;96311.91;;;28.31;31.34
40946;BME280;55635;50.264;11.918;2023-05-25T11:45:10;96298.56;;;28.25;33.34
40946;BME280;55635;50.264;11.918;2023-05-25T11:47:53;96292.16;;;27.80;33.24
40946;BME280;55635;50.264;11.918;2023-05-25T11:50:34;96296.84;;;27.34;32.67
40946;BME280;55635;50.264;11.918;2023-05-25T11:53:15;96302.56;;;27.53;31.53
40946;BME280;55635;50.264;11.918;2023-05-25T11:55:56;96304.19;;;27.03;32.05
40946;BME280;55635;50.264;11.918;2023-05-25T11:58:38;96296.84;;;27.39;31.85
40946;BME280;55635;50.264;11.918;2023-05-25T12:01:22;96302.81;;;27.62;31.82
40946;BME280;55635;50.264;11.918;2023-05-25T12:04:11;96297.31;;;27.87;31.16
40946;BME280;55635;50.264;11.918;2023-05-25T12:06:52;96293.44;;;28.08;32.08
40946;BME280;55635;50.264;11.918;2023-05-25T12:09:34;96294.28;;;28.68;30.76
40946;BME280;55635;50.264;11.918;2023-05-25T12:12:16;96295.06;;;29.07;31.31
40946;BME280;55635;50.264;11.918;2023-05-25T12:14:57;96281.22;;;28.98;29.97
40946;BME280;55635;50.264;11.918;2023-05-25T12:17:43;96283.84;;;28.75;30.99
40946;BME280;55635;50.264;11.918;2023-05-25T12:20:24;96291.13;;;28.35;30.85
40946;BME280;55635;50.264;11.918;2023-05-25T12:23:05;96281.03;;;27.67;30.49
40946;BME280;55635;50.264;11.918;2023-05-25T12:25:46;96293.97;;;28.15;31.69
40946;BME280;55635;50.264;11.918;2023-05-25T12:28:27;96280.25;;;28.30;30.92
40946;BME280;55635;50.264;11.918;2023-05-25T12:31:22;96278.66;;;28.24;31.40
40946;BME280;55635;50.264;11.918;2023-05-25T12:34:11;96286.28;;;28.76;30.88
40946;BME280;55635;50.264;11.918;2023-05-25T12:36:55;96278.97;;;28.67;30.26
40946;BME280;55635;50.264;11.918;2023-05-25T12:39:36;96278.38;;;28.75;31.63
40946;BME280;55635;50.264;11.918;2023-05-25T12:42:18;96283.09;;;28.59;30.87
40946;BME280;55635;50.264;11.918;2023-05-25T12:44:59;96269.78;;;28.91;30.62
40946;BME280;55635;50.264;11.918;2023-05-25T12:47:44;96280.66;;;28.96;29.87
40946;BME280;55635;50.264;11.918;2023-05-25T12:50:25;96277.22;;;28.86;28.94
40946;BME280;55635;50.264;11.918;2023-05-25T12:53:06;96268.72;;;28.92;30.57
40946;BME280;55635;50.264;11.918;2023-05-25T12:55:47;96278.38;;;28.75;29.83
40946;BME280;55635;50.264;11.918;2023-05-25T12:58:28;96283.34;;;29.06;30.15
40946;BME280;55635;50.264;11.918;2023-05-25T13:01:09;96270.81;;;28.56;30.29
40946;BME280;55635;50.264;11.918;2023-05-25T13:03:51;96267.53;;;28.59;30.20
40946;BME280;55635;50.264;11.918;2023-05-25T13:06:33;96274.06;;;28.63;30.14
40946;BME280;55635;50.264;11.918;2023-05-25T13:09:15;96278.88;;;28.33;31.17
40946;BME280;55635;50.264;11.918;2023-05-25T13:11:57;96273.03;;;28.54;30.88
40946;BME280;55635;50.264;11.918;2023-05-25T13:14:38;96274.03;;;29.07;30.39
40946;BME280;55635;50.264;11.918;2023-05-25T13:17:20;96267.69;;;29.46;29.38
40946;BME280;55635;50.264;11.918;2023-05-25T13:20:01;96268.47;;;28.89;30.45
40946;BME280;55635;50.264;11.918;2023-05-25T13:22:44;96258.81;;;28.57;30.05
40946;BME280;55635;50.264;11.918;2023-05-25T13:25:25;96266.44;;;28.60;30.02
40946;BME280;55635;50.264;11.918;2023-05-25T13:28:12;96266.66;;;28.20;31.13
40946;BME280;55635;50.264;11.918;2023-05-25T13:30:54;96269.66;;;28.24;31.00
40946;BME280;55635;50.264;11.918;2023-05-25T13:33:35;96255.88;;;28.49;29.73
40946;BME280;55635;50.264;11.918;2023-05-25T13:36:16;96260.97;;;28.66;30.29
40946;BME280;55635;50.264;11.918;2023-05-25T13:38:56;96264.75;;;28.21;31.85
40946;BME280;55635;50.264;11.918;2023-05-25T13:41:38;96267.75;;;29.07;29.99
40946;BME280;55635;50.264;11.918;2023-05-25T13:44:19;96257.47;;;28.94;30.94
40946;BME280;55635;50.264;11.918;2023-05-25T13:47:00;96257.91;;;28.77;30.97
40946;BME280;55635;50.264;11.918;2023-05-25T13:49:41;96253.97;;;28.44;30.23
40946;BME280;55635;50.264;11.918;2023-05-25T13:52:22;96242.34;;;29.06;29.98
40946;BME280;55635;50.264;11.918;2023-05-25T13:55:04;96254.41;;;28.67;30.07
40946;BME280;55635;50.264;11.918;2023-05-25T13:57:45;96254.94;;;28.69;29.67
40946;BME280;55635;50.264;11.918;2023-05-25T14:00:26;96251.69;;;29.00;30.44
40946;BME280;55635;50.264;11.918;2023-05-25T14:03:07;96247.75;;;29.45;30.08
40946;BME280;55635;50.264;11.918;2023-05-25T14:05:48;96246.97;;;29.11;29.89
40946;BME280;55635;50.264;11.918;2023-05-25T14:08:29;96241.53;;;28.77;29.60
40946;BME280;55635;50.264;11.918;2023-05-25T14:11:11;96241.22;;;29.12;28.91
40946;BME280;55635;50.264;11.918;2023-05-25T14:13:52;96239.38;;;29.60;28.51
40946;BME280;55635;50.264;11.918;2023-05-25T14:16:37;96239.66;;;29.35;28.56
40946;BME280;55635;50.264;11.918;2023-05-25T14:19:17;96247.63;;;28.54;27.65
40946;BME280;55635;50.264;11.918;2023-05-25T14:21:58;96247.78;;;28.78;27.90